createdAt,value
2018-03-02T00:00:08.035Z,8.77
2018-03-02T00:02:36.255Z,8.07
2018-03-02T00:05:03.782Z,9.50
2018-03-02T00:07:31.212Z,8.47
2018-03-02T00:09:58.716Z,11.53
2018-03-02T00:12:26.819Z,8.70
2018-03-02T00:14:55.038Z,12.98
2018-03-02T00:17:22.526Z,8.20
2018-03-02T00:19:49.950Z,8.87
2018-03-02T00:22:18.180Z,9.00
2018-03-02T00:24:45.620Z,9.30
2018-03-02T00:27:13.076Z,12.07
2018-03-02T00:29:42.224Z,13.57
2018-03-02T00:32:09.625Z,8.17
2018-03-02T00:34:37.074Z,9.60
2018-03-02T00:37:04.490Z,16.80
2018-03-02T00:39:32.681Z,9.80
2018-03-02T00:42:00.886Z,18.60
2018-03-02T00:44:28.352Z,13.50
2018-03-02T00:46:55.814Z,12.33
2018-03-02T00:49:23.986Z,12.67
2018-03-02T00:51:52.233Z,9.33
2018-03-02T00:54:20.402Z,8.40
2018-03-02T00:56:47.958Z,11.40
2018-03-02T00:59:15.364Z,15.37
2018-03-02T01:01:42.793Z,5.73
2018-03-02T01:04:10.227Z,10.27
2018-03-02T01:06:38.455Z,15.70
2018-03-02T01:09:05.900Z,11.97
2018-03-02T01:11:34.092Z,12.97
2018-03-02T01:14:01.557Z,9.73
2018-03-02T01:16:29.751Z,11.63
2018-03-02T01:18:57.182Z,6.60
2018-03-02T01:21:24.663Z,12.47
2018-03-02T01:23:52.086Z,7.60
2018-03-02T01:26:19.532Z,16.27
2018-03-02T01:28:47.005Z,11.80
2018-03-02T01:31:14.481Z,13.27
2018-03-02T01:33:42.805Z,12.67
2018-03-02T01:36:10.236Z,12.93
2018-03-02T01:38:37.675Z,11.60
2018-03-02T01:41:05.095Z,12.67
2018-03-02T01:43:32.510Z,10.83
2018-03-02T01:46:00.703Z,15.27
2018-03-02T01:48:28.914Z,13.60
2018-03-02T01:50:56.372Z,14.40
2018-03-02T01:53:23.798Z,19.80
2018-03-02T01:55:51.242Z,11.80
2018-03-02T01:58:18.692Z,15.00
2018-03-02T02:00:46.177Z,15.13
2018-03-02T02:03:13.592Z,11.40
2018-03-02T02:05:41.001Z,12.63
2018-03-02T02:08:08.432Z,14.10
2018-03-02T02:10:35.870Z,16.73
2018-03-02T02:13:03.306Z,15.10
2018-03-02T02:15:30.709Z,14.30
2018-03-02T02:17:58.251Z,16.67
2018-03-02T02:20:25.675Z,9.82
2018-03-02T02:22:53.206Z,19.27
2018-03-02T02:25:20.628Z,15.93
2018-03-02T02:27:48.868Z,17.50
2018-03-02T02:30:16.341Z,19.20
2018-03-02T02:32:44.689Z,9.80
2018-03-02T02:35:12.121Z,9.00
2018-03-02T02:37:39.546Z,10.90
2018-03-02T02:40:07.005Z,13.63
2018-03-02T02:42:34.437Z,11.27
2018-03-02T02:45:01.958Z,19.07
2018-03-02T02:47:29.367Z,11.70
2018-03-02T02:49:56.889Z,17.37
2018-03-02T02:52:24.344Z,20.60
2018-03-02T02:54:51.798Z,18.60
2018-03-02T02:57:20.030Z,10.80
2018-03-02T02:59:47.472Z,13.45
2018-03-02T03:02:14.930Z,15.07
2018-03-02T03:04:43.130Z,12.87
2018-03-02T03:07:10.559Z,20.23
2018-03-02T03:09:38.983Z,11.97
2018-03-02T03:12:06.457Z,10.23
2018-03-02T03:14:34.033Z,10.60
2018-03-02T03:17:01.474Z,11.77
2018-03-02T03:19:28.985Z,15.15
2018-03-02T03:21:56.449Z,14.30
2018-03-02T03:24:23.874Z,15.90
2018-03-02T03:26:52.083Z,9.37
2018-03-02T03:29:20.268Z,21.13
2018-03-02T03:31:47.752Z,18.30
2018-03-02T03:34:15.278Z,13.90
2018-03-02T03:36:42.694Z,17.33
2018-03-02T03:39:10.131Z,15.88
2018-03-02T03:41:37.577Z,19.67
2018-03-02T03:44:05.116Z,6.40
2018-03-02T03:46:32.537Z,14.27
2018-03-02T03:49:00.738Z,17.30
2018-03-02T03:51:28.167Z,12.90
2018-03-02T03:53:55.723Z,11.63
2018-03-02T03:56:23.167Z,7.97
2018-03-02T03:58:50.630Z,14.73
2018-03-02T04:01:18.143Z,15.70
2018-03-02T04:03:46.490Z,9.23
2018-03-02T04:06:13.923Z,16.07
2018-03-02T04:08:42.133Z,13.10
2018-03-02T04:11:09.603Z,20.97
2018-03-02T04:13:37.048Z,14.87
2018-03-02T04:16:04.563Z,15.13
2018-03-02T04:18:32.053Z,15.55
2018-03-02T04:20:59.548Z,21.67
2018-03-02T04:23:27.734Z,21.47
2018-03-02T04:25:55.162Z,18.40
2018-03-02T04:28:22.615Z,20.40
2018-03-02T04:30:50.795Z,21.53
2018-03-02T04:33:18.235Z,20.50
2018-03-02T04:35:46.366Z,19.35
2018-03-02T04:38:14.575Z,14.80
2018-03-02T04:40:42.029Z,19.00
2018-03-02T04:43:09.477Z,16.97
2018-03-02T04:45:36.935Z,8.97
2018-03-02T04:48:04.338Z,21.48
2018-03-02T04:50:31.774Z,17.33
2018-03-02T04:52:59.296Z,12.83
2018-03-02T04:55:26.725Z,12.88
2018-03-02T04:57:54.936Z,15.47
2018-03-02T05:00:22.450Z,16.53
2018-03-02T05:02:49.887Z,9.38
2018-03-02T05:05:18.074Z,21.47
2018-03-02T05:07:45.530Z,10.63
2018-03-02T05:10:12.983Z,13.93
2018-03-02T05:12:40.494Z,16.57
2018-03-02T05:15:07.986Z,21.73
2018-03-02T05:17:35.451Z,9.13
2018-03-02T05:20:02.882Z,18.87
2018-03-02T05:22:30.329Z,20.05
2018-03-02T05:24:57.802Z,20.63
2018-03-02T05:27:25.173Z,7.93
2018-03-02T05:29:52.709Z,13.77
2018-03-02T05:32:20.137Z,9.83
2018-03-02T05:34:48.370Z,13.57
2018-03-02T05:37:15.854Z,15.13
2018-03-02T05:39:43.310Z,12.63
2018-03-02T05:42:10.765Z,21.83
2018-03-02T05:44:38.244Z,14.40
2018-03-02T05:47:05.719Z,11.02
2018-03-02T05:49:33.186Z,10.87
2018-03-02T05:52:00.666Z,17.73
2018-03-02T05:54:28.111Z,15.50
2018-03-02T05:56:56.317Z,15.80
2018-03-02T05:59:23.802Z,17.70
2018-03-02T06:01:51.253Z,12.27
2018-03-02T06:04:18.696Z,21.50
2018-03-02T06:06:46.935Z,14.13
2018-03-02T06:09:14.358Z,17.53
2018-03-02T06:11:42.612Z,10.40
2018-03-02T06:14:10.059Z,13.70
2018-03-02T06:16:37.534Z,12.35
2018-03-02T06:19:04.962Z,11.47
2018-03-02T06:21:33.162Z,12.07
2018-03-02T06:24:01.350Z,18.20
2018-03-02T06:26:29.540Z,12.83
2018-03-02T06:28:57.146Z,13.70
2018-03-02T06:31:24.566Z,14.17
2018-03-02T06:33:52.815Z,15.17
2018-03-02T06:36:20.277Z,13.40
2018-03-02T06:38:48.614Z,9.88
2018-03-02T06:41:16.115Z,11.40
2018-03-02T06:43:43.574Z,14.00
2018-03-02T06:46:11.043Z,16.23
2018-03-02T06:48:38.623Z,13.23
2018-03-02T06:51:06.054Z,22.17
2018-03-02T06:53:33.475Z,14.37
2018-03-02T06:56:00.923Z,14.50
2018-03-02T06:58:28.419Z,15.33
2018-03-02T07:00:55.839Z,7.57
2018-03-02T07:03:24.059Z,7.47
2018-03-02T07:05:51.503Z,17.40
2018-03-02T07:08:19.754Z,13.07
2018-03-02T07:10:47.236Z,17.57
2018-03-02T07:13:14.703Z,13.73
2018-03-02T07:15:42.319Z,10.47
2018-03-02T07:18:10.499Z,14.13
2018-03-02T07:20:37.919Z,12.60
2018-03-02T07:23:05.365Z,15.57
2018-03-02T07:25:32.806Z,12.70
2018-03-02T07:28:00.239Z,16.30
2018-03-02T07:30:27.666Z,22.23
2018-03-02T07:32:55.081Z,23.17
2018-03-02T07:35:23.295Z,14.17
2018-03-02T07:37:50.742Z,14.00
2018-03-02T07:40:19.894Z,8.87
2018-03-02T07:42:47.354Z,15.52
2018-03-02T07:45:15.781Z,21.57
2018-03-02T07:47:43.209Z,20.67
2018-03-02T07:50:10.635Z,14.13
2018-03-02T07:52:38.063Z,11.10
2018-03-02T07:55:05.534Z,11.55
2018-03-02T07:57:32.994Z,19.47
2018-03-02T08:00:00.393Z,15.83
2018-03-02T08:02:27.929Z,12.03
2018-03-02T08:04:55.396Z,24.10
2018-03-02T08:07:22.890Z,22.83
2018-03-02T08:09:50.325Z,8.77
2018-03-02T08:12:20.182Z,22.70
2018-03-02T08:14:47.680Z,10.80
2018-03-02T08:17:15.134Z,12.67
2018-03-02T08:19:42.592Z,15.40
2018-03-02T08:22:10.048Z,20.60
2018-03-02T08:24:37.475Z,14.20
2018-03-02T08:27:05.702Z,13.88
2018-03-02T08:29:33.128Z,15.90
2018-03-02T08:32:00.548Z,8.87
2018-03-02T08:34:27.990Z,14.27
2018-03-02T08:36:55.405Z,21.80
2018-03-02T08:39:22.815Z,12.60
2018-03-02T08:41:50.280Z,23.67
2018-03-02T08:44:17.876Z,15.50
2018-03-02T08:46:45.555Z,18.17
2018-03-02T08:49:13.836Z,17.27
2018-03-02T08:51:41.295Z,15.77
2018-03-02T08:54:08.737Z,13.53
2018-03-02T08:56:36.945Z,14.47
2018-03-02T08:59:04.360Z,22.35
2018-03-02T09:01:31.770Z,26.70
2018-03-02T09:03:59.348Z,20.42
2018-03-02T09:06:26.845Z,15.40
2018-03-02T09:08:54.291Z,21.70
2018-03-02T09:11:21.806Z,14.50
2018-03-02T09:13:49.257Z,16.60
2018-03-02T09:16:16.728Z,17.17
2018-03-02T09:18:44.184Z,14.90
2018-03-02T09:21:11.592Z,21.73
2018-03-02T09:23:39.210Z,16.57
2018-03-02T09:26:06.643Z,17.87
2018-03-02T09:28:34.820Z,18.07
2018-03-02T09:31:02.264Z,12.07
2018-03-02T09:33:29.694Z,22.50
2018-03-02T09:35:57.122Z,17.20
2018-03-02T09:38:24.562Z,23.63
2018-03-02T09:40:52.010Z,27.65
2018-03-02T09:43:19.434Z,20.37
2018-03-02T09:45:47.635Z,17.00
2018-03-02T09:48:15.193Z,20.63
2018-03-02T09:50:42.587Z,20.83
2018-03-02T09:53:10.027Z,16.30
2018-03-02T09:55:37.488Z,20.47
2018-03-02T09:58:05.805Z,24.70
2018-03-02T10:00:33.273Z,21.45
2018-03-02T10:03:00.669Z,19.87
2018-03-02T10:05:28.106Z,16.90
2018-03-02T10:07:55.538Z,16.00
2018-03-02T10:10:22.989Z,21.07
2018-03-02T10:12:51.375Z,21.45
2018-03-02T10:15:18.806Z,14.00
2018-03-02T10:17:47.011Z,18.40
2018-03-02T10:20:14.456Z,26.45
2018-03-02T10:22:42.687Z,16.07
2018-03-02T10:25:10.090Z,27.10
2018-03-02T10:27:38.297Z,22.63
2018-03-02T10:30:06.480Z,28.65
2018-03-02T10:32:34.674Z,18.80
2018-03-02T10:35:02.102Z,19.03
2018-03-02T10:37:29.539Z,18.97
2018-03-02T10:39:56.949Z,18.50
2018-03-02T10:42:24.386Z,19.33
2018-03-02T10:44:51.890Z,21.92
2018-03-02T10:47:19.419Z,29.00
2018-03-02T10:49:46.896Z,21.37
2018-03-02T10:52:14.317Z,20.23
2018-03-02T10:54:42.516Z,20.67
2018-03-02T10:57:09.940Z,18.90
2018-03-02T10:59:37.353Z,17.37
2018-03-02T11:02:06.578Z,19.60
2018-03-02T11:04:35.807Z,24.02
2018-03-02T11:07:03.295Z,22.98
2018-03-02T11:09:30.681Z,17.53
2018-03-02T11:11:58.882Z,17.70
2018-03-02T11:14:27.059Z,22.23
2018-03-02T11:16:55.265Z,26.87
2018-03-02T11:19:23.476Z,18.53
2018-03-02T11:21:50.935Z,23.07
2018-03-02T11:24:18.406Z,22.10
2018-03-02T11:26:45.895Z,17.07
2018-03-02T11:29:13.328Z,26.67
2018-03-02T11:31:40.783Z,23.47
2018-03-02T11:34:08.285Z,21.70
2018-03-02T11:36:35.698Z,22.43
2018-03-02T11:39:03.441Z,20.47
2018-03-02T11:41:30.897Z,20.95
2018-03-02T11:43:58.329Z,29.10
2018-03-02T11:46:26.534Z,28.93
2018-03-02T11:48:54.734Z,25.00
2018-03-02T11:51:23.634Z,30.90
2018-03-02T11:53:51.165Z,27.73
2018-03-02T11:56:18.635Z,25.53
2018-03-02T11:58:46.064Z,21.17
2018-03-02T12:01:13.536Z,30.47
2018-03-02T12:03:40.955Z,23.20
2018-03-02T12:06:09.168Z,16.17
2018-03-02T12:08:36.597Z,26.77
2018-03-02T12:11:04.801Z,19.35
2018-03-02T12:13:32.990Z,27.07
2018-03-02T12:16:00.417Z,24.10
2018-03-02T12:18:27.838Z,24.67
2018-03-02T12:20:56.035Z,24.87
2018-03-02T12:23:23.506Z,25.07
2018-03-02T12:25:51.001Z,18.43
2018-03-02T12:28:18.449Z,30.90
2018-03-02T12:30:45.903Z,26.00
2018-03-02T12:33:13.333Z,32.30
2018-03-02T12:35:41.556Z,27.27
2018-03-02T12:38:08.989Z,33.20
2018-03-02T12:40:36.385Z,33.17
2018-03-02T12:43:03.866Z,35.10
2018-03-02T12:45:32.036Z,30.83
2018-03-02T12:48:00.237Z,33.40
2018-03-02T12:50:27.678Z,33.57
2018-03-02T12:52:55.852Z,22.00
2018-03-02T12:55:23.792Z,29.12
2018-03-02T12:57:51.198Z,29.70
2018-03-02T13:00:18.743Z,28.67
2018-03-02T13:02:46.157Z,24.57
2018-03-02T13:05:13.583Z,34.23
2018-03-02T13:07:41.003Z,21.27
2018-03-02T13:10:08.474Z,29.97
2018-03-02T13:12:35.893Z,34.63
2018-03-02T13:15:04.083Z,34.70
2018-03-02T13:17:31.617Z,33.23
2018-03-02T13:19:59.033Z,31.20
2018-03-02T13:22:38.275Z,25.17
2018-03-02T13:25:05.689Z,25.03
2018-03-02T13:27:45.052Z,32.13
2018-03-02T13:30:12.472Z,24.40
2018-03-02T13:32:39.882Z,30.67
2018-03-02T13:35:10.103Z,33.43
2018-03-02T13:37:37.677Z,27.60
2018-03-02T13:40:17.818Z,31.73
2018-03-02T13:42:45.997Z,32.63
2018-03-02T13:45:13.507Z,35.00
2018-03-02T13:50:56.771Z,30.85
2018-03-02T13:53:25.357Z,31.45
2018-03-02T13:55:53.555Z,35.27
2018-03-02T13:58:21.767Z,35.13
2018-03-02T14:00:49.247Z,32.40
2018-03-02T14:03:28.739Z,34.90
2018-03-02T14:05:56.961Z,35.20
2018-03-02T14:08:24.827Z,32.97
2018-03-02T14:10:53.029Z,35.50
2018-03-02T14:13:20.493Z,28.10
2018-03-02T14:15:47.937Z,33.10
2018-03-02T14:18:16.114Z,36.80
2018-03-02T14:20:44.386Z,31.17
2018-03-02T14:23:11.910Z,28.50
2018-03-02T14:25:39.359Z,29.33
2018-03-02T14:28:06.871Z,31.20
2018-03-02T14:30:34.300Z,30.33
2018-03-02T14:33:02.596Z,31.53
2018-03-02T14:35:30.033Z,27.70
2018-03-02T14:37:57.462Z,34.23
2018-03-02T14:40:26.127Z,32.83
2018-03-02T14:42:55.354Z,28.50
2018-03-02T14:45:22.806Z,33.60
2018-03-02T14:47:50.244Z,25.33
2018-03-02T14:50:17.666Z,32.03
2018-03-02T14:52:45.186Z,20.27
2018-03-02T14:55:12.594Z,32.60
2018-03-02T14:57:40.020Z,25.90
2018-03-02T15:00:07.459Z,24.57
2018-03-02T15:02:34.932Z,20.40
2018-03-02T15:05:02.347Z,25.17
2018-03-02T15:07:30.538Z,24.15
2018-03-02T15:09:58.707Z,32.67
2018-03-02T15:12:26.935Z,27.60
2018-03-02T15:14:54.346Z,24.33
2018-03-02T15:17:21.993Z,26.10
2018-03-02T15:19:49.558Z,33.23
2018-03-02T15:22:16.981Z,23.08
2018-03-02T15:24:45.165Z,27.60
2018-03-02T15:27:12.660Z,29.03
2018-03-02T15:29:40.097Z,24.87
2018-03-02T15:32:08.330Z,24.73
2018-03-02T15:34:35.751Z,23.10
2018-03-02T15:37:03.941Z,33.15
2018-03-02T15:39:31.370Z,24.20
2018-03-02T15:41:58.790Z,30.53
2018-03-02T15:44:27.191Z,32.70
2018-03-02T15:46:54.639Z,28.13
2018-03-02T15:49:22.058Z,34.13
2018-03-02T15:51:49.525Z,37.22
2018-03-02T15:54:16.968Z,25.60
2018-03-02T15:56:45.589Z,32.00
2018-03-02T15:59:13.015Z,27.77
2018-03-02T16:01:41.190Z,21.73
2018-03-02T16:04:09.374Z,17.37
2018-03-02T16:06:37.562Z,24.95
2018-03-02T16:09:05.760Z,19.10
2018-03-02T16:11:33.186Z,25.73
2018-03-02T16:14:00.632Z,23.30
2018-03-02T16:16:28.073Z,13.53
2018-03-02T16:18:57.278Z,26.53
2018-03-02T16:21:25.465Z,20.30
2018-03-02T16:23:53.679Z,20.60
2018-03-02T16:26:21.099Z,20.10
2018-03-02T16:28:49.327Z,24.97
2018-03-02T16:31:16.851Z,17.57
2018-03-02T16:33:44.297Z,22.73
2018-03-02T16:36:11.706Z,23.50
2018-03-02T16:38:39.936Z,28.55
2018-03-02T16:41:07.387Z,22.70
2018-03-02T16:43:34.818Z,29.93
2018-03-02T16:46:03.040Z,26.90
2018-03-02T16:48:30.473Z,25.42
2018-03-02T16:50:58.686Z,20.80
2018-03-02T16:53:26.127Z,17.33
2018-03-02T16:55:53.555Z,19.42
2018-03-02T16:58:21.104Z,19.67
2018-03-02T17:00:49.609Z,25.57
2018-03-02T17:03:17.188Z,30.47
2018-03-02T17:05:44.617Z,22.00
2018-03-02T17:08:12.826Z,19.57
2018-03-02T17:10:40.242Z,22.43
2018-03-02T17:13:08.444Z,17.12
2018-03-02T17:15:36.659Z,15.20
2018-03-02T17:18:04.086Z,17.80
2018-03-02T17:20:31.963Z,27.00
2018-03-02T17:22:59.475Z,15.93
2018-03-02T17:25:27.878Z,20.10
2018-03-02T17:27:55.296Z,22.47
2018-03-02T17:30:22.757Z,15.87
2018-03-02T17:32:50.174Z,19.17
2018-03-02T17:35:17.605Z,18.20
2018-03-02T17:37:45.823Z,16.13
2018-03-02T17:40:13.262Z,19.60
2018-03-02T17:42:41.469Z,28.00
2018-03-02T17:45:08.909Z,18.40
2018-03-02T17:47:36.326Z,16.75
2018-03-02T17:50:03.787Z,17.77
2018-03-02T17:52:31.199Z,19.27
2018-03-02T17:54:58.638Z,18.43
2018-03-02T17:57:26.074Z,20.63
2018-03-02T17:59:53.573Z,21.40
2018-03-02T18:02:21.030Z,16.50
2018-03-02T18:04:48.472Z,12.23
2018-03-02T18:07:15.917Z,20.33
2018-03-02T18:09:43.349Z,18.73
2018-03-02T18:12:10.763Z,21.23
2018-03-02T18:14:38.276Z,12.63
2018-03-02T18:17:05.722Z,19.47
2018-03-02T18:19:33.927Z,23.30
2018-03-02T18:22:01.352Z,19.67
2018-03-02T18:24:29.980Z,15.47
2018-03-02T18:26:59.126Z,12.10
2018-03-02T18:29:26.543Z,19.77
2018-03-02T18:31:53.992Z,21.15
2018-03-02T18:34:21.479Z,17.10
2018-03-02T18:36:49.725Z,13.90
2018-03-02T18:39:17.142Z,19.40
2018-03-02T18:41:45.385Z,12.90
2018-03-02T18:44:12.818Z,15.47
2018-03-02T18:46:40.253Z,22.35
2018-03-02T18:49:08.462Z,11.30
2018-03-02T18:51:36.658Z,17.37
2018-03-02T18:54:04.085Z,12.07
2018-03-02T18:56:31.601Z,18.13
2018-03-02T18:59:00.195Z,14.95
2018-03-02T19:01:27.630Z,21.90
2018-03-02T19:03:55.878Z,18.10
2018-03-02T19:06:23.326Z,17.73
2018-03-02T19:08:50.770Z,21.00
2018-03-02T19:11:18.193Z,15.50
2018-03-02T19:13:45.662Z,13.07
2018-03-02T19:16:13.076Z,14.23
2018-03-02T19:18:41.269Z,12.20
2018-03-02T19:21:08.740Z,11.05
2018-03-02T19:23:36.902Z,13.90
2018-03-02T19:26:05.104Z,13.50
2018-03-02T19:28:33.308Z,21.40
2018-03-02T19:31:00.779Z,12.20
2018-03-02T19:33:28.215Z,13.87
2018-03-02T19:35:56.418Z,15.60
2018-03-02T19:38:23.940Z,10.97
2018-03-02T19:40:51.367Z,13.70
2018-03-02T19:43:18.862Z,13.80
2018-03-02T19:45:46.328Z,10.98
2018-03-02T19:48:13.736Z,17.27
2018-03-02T19:50:41.922Z,21.47
2018-03-02T19:53:10.132Z,13.97
2018-03-02T19:55:38.402Z,9.83
2018-03-02T19:58:06.598Z,11.10
2018-03-02T20:00:34.053Z,19.63
2018-03-02T20:03:01.447Z,19.00
2018-03-02T20:05:28.862Z,16.43
2018-03-02T20:07:56.389Z,20.90
2018-03-02T20:10:23.841Z,14.03
2018-03-02T20:12:52.056Z,18.67
2018-03-02T20:15:19.514Z,22.52
2018-03-02T20:17:46.996Z,22.73
2018-03-02T20:20:14.482Z,11.73
2018-03-02T20:22:41.934Z,18.92
2018-03-02T20:25:09.365Z,16.67
2018-03-02T20:27:37.571Z,11.00
2018-03-02T20:30:04.995Z,12.40
2018-03-02T20:32:32.417Z,14.10
2018-03-02T20:35:01.558Z,14.40
2018-03-02T20:37:28.961Z,14.00
2018-03-02T20:39:57.182Z,19.27
2018-03-02T20:42:24.594Z,13.53
2018-03-02T20:44:52.030Z,20.83
2018-03-02T20:47:19.498Z,11.83
2018-03-02T20:49:46.924Z,13.33
2018-03-02T20:52:14.383Z,13.30
2018-03-02T20:54:42.603Z,17.37
2018-03-02T20:57:10.071Z,19.15
2018-03-02T20:59:37.543Z,8.87
2018-03-02T21:02:04.972Z,19.47
2018-03-02T21:04:32.390Z,19.10
2018-03-02T21:06:59.814Z,18.20
2018-03-02T21:09:28.003Z,20.92
2018-03-02T21:11:56.195Z,19.63
2018-03-02T21:14:24.393Z,18.00
2018-03-02T21:16:52.588Z,19.27
2018-03-02T21:19:20.002Z,19.23
2018-03-02T21:21:47.459Z,11.63
2018-03-02T21:24:14.895Z,11.50
2018-03-02T21:26:42.349Z,15.07
2018-03-02T21:29:09.939Z,15.60
2018-03-02T21:31:37.378Z,14.48
2018-03-02T21:34:04.791Z,16.97
2018-03-02T21:36:32.241Z,13.20
2018-03-02T21:38:59.715Z,14.63
2018-03-02T21:41:27.168Z,11.87
2018-03-02T21:43:54.606Z,17.95
2018-03-02T21:46:22.034Z,18.13
2018-03-02T21:48:49.486Z,12.13
2018-03-02T21:51:16.977Z,15.27
2018-03-02T21:53:44.396Z,20.40
2018-03-02T21:56:12.600Z,12.05
2018-03-02T21:58:40.034Z,19.30
2018-03-02T22:01:07.455Z,20.27
2018-03-02T22:03:34.890Z,15.52
2018-03-02T22:06:03.071Z,12.37
2018-03-02T22:08:32.199Z,15.90
2018-03-02T22:10:59.624Z,20.80
2018-03-02T22:13:27.072Z,8.45
2018-03-02T22:15:54.484Z,14.13
2018-03-02T22:18:22.705Z,11.77
2018-03-02T22:20:50.123Z,11.85
2018-03-02T22:23:17.597Z,21.50
2018-03-02T22:25:45.027Z,13.63
2018-03-02T22:28:12.457Z,12.30
2018-03-02T22:30:39.885Z,13.27
2018-03-02T22:33:08.809Z,18.70
2018-03-02T22:35:36.997Z,18.77
2018-03-02T22:38:05.207Z,13.23
2018-03-02T22:40:33.420Z,18.00
2018-03-02T22:43:00.850Z,19.27
2018-03-02T22:45:29.044Z,15.10
2018-03-02T22:47:56.493Z,19.83
2018-03-02T22:50:24.670Z,15.33
2018-03-02T22:52:52.174Z,10.83
2018-03-02T22:55:19.599Z,21.23
2018-03-02T22:57:47.259Z,21.83
2018-03-02T23:00:14.703Z,21.45
2018-03-02T23:02:42.127Z,20.67
2018-03-02T23:05:10.350Z,13.37
2018-03-02T23:07:37.851Z,21.90
2018-03-02T23:10:05.253Z,15.60
2018-03-02T23:12:33.643Z,11.27
2018-03-02T23:15:02.802Z,20.40
2018-03-02T23:17:30.210Z,15.40
2018-03-02T23:19:57.720Z,8.57
2018-03-02T23:22:25.173Z,11.33
2018-03-02T23:24:53.400Z,20.93
2018-03-02T23:27:20.802Z,8.90
2018-03-02T23:29:49.009Z,14.30
2018-03-02T23:32:16.444Z,17.40
2018-03-02T23:34:43.884Z,14.87
2018-03-02T23:37:11.302Z,16.03
2018-03-02T23:39:38.727Z,14.80
2018-03-02T23:42:06.178Z,18.10
2018-03-02T23:44:33.586Z,8.50
2018-03-02T23:47:01.014Z,15.10
2018-03-02T23:49:28.457Z,12.87
2018-03-02T23:51:55.958Z,20.30
2018-03-02T23:54:23.528Z,17.10
2018-03-02T23:56:50.957Z,17.27
2018-03-02T23:59:19.154Z,18.60
